createdAt,value
2023-02-12T00:00:45.001Z,2.01
2023-02-12T00:06:08.484Z,2.22
2023-02-12T00:11:30.368Z,2.11
2023-02-12T00:16:52.197Z,1.94
2023-02-12T00:22:14.068Z,1.91
2023-02-12T00:27:36.156Z,1.95
2023-02-12T00:32:58.024Z,2.04
2023-02-12T00:38:19.906Z,2.06
2023-02-12T00:43:41.986Z,1.80
2023-02-12T00:49:03.898Z,1.90
2023-02-12T00:54:25.741Z,1.66
2023-02-12T00:59:47.598Z,1.64
2023-02-12T01:05:09.592Z,1.58
2023-02-12T01:10:31.984Z,1.68
2023-02-12T01:16:07.059Z,1.83
2023-02-12T01:21:31.821Z,1.52
2023-02-12T01:26:53.648Z,1.51
2023-02-12T01:32:15.535Z,1.41
2023-02-12T01:37:38.642Z,1.63
2023-02-12T01:43:02.030Z,1.43
2023-02-12T01:48:27.230Z,1.54
2023-02-12T01:53:53.548Z,1.64
2023-02-12T01:59:16.964Z,1.64
2023-02-12T02:04:43.961Z,1.76
2023-02-12T02:10:06.694Z,1.80
2023-02-12T02:15:31.061Z,1.79
2023-02-12T02:21:13.049Z,1.64
2023-02-12T02:26:43.677Z,1.69
2023-02-12T02:32:15.310Z,1.44
2023-02-12T02:37:45.678Z,1.60
2023-02-12T02:43:15.366Z,1.45
2023-02-12T02:48:43.881Z,1.67
2023-02-12T02:54:13.494Z,1.69
2023-02-12T02:59:43.324Z,1.77
2023-02-12T03:05:19.711Z,1.76
2023-02-12T03:10:44.643Z,1.14
2023-02-12T03:16:12.870Z,1.40
2023-02-12T03:21:44.667Z,1.58
2023-02-12T03:27:11.726Z,1.65
2023-02-12T03:33:01.344Z,1.56
2023-02-12T03:38:41.469Z,1.51
2023-02-12T03:44:16.209Z,1.58
2023-02-12T03:50:12.047Z,1.51
2023-02-12T03:55:40.420Z,1.41
2023-02-12T04:01:03.981Z,1.27
2023-02-12T04:06:29.009Z,1.22
2023-02-12T04:12:07.225Z,1.35
2023-02-12T04:17:56.855Z,1.17
2023-02-12T04:23:33.877Z,1.16
2023-02-12T04:29:11.309Z,1.18
2023-02-12T04:34:39.933Z,1.13
2023-02-12T04:40:06.235Z,1.13
2023-02-12T04:45:31.003Z,1.19
2023-02-12T04:50:52.864Z,1.03
2023-02-12T04:56:15.263Z,1.24
2023-02-12T05:01:38.769Z,1.16
2023-02-12T05:07:00.690Z,1.05
2023-02-12T05:12:22.590Z,1.09
2023-02-12T05:17:44.461Z,1.14
2023-02-12T05:23:06.307Z,1.12
2023-02-12T05:28:29.080Z,0.96
2023-02-12T05:33:51.193Z,1.09
2023-02-12T05:39:13.022Z,1.05
2023-02-12T05:44:34.893Z,0.80
2023-02-12T05:49:56.754Z,1.03
2023-02-12T05:55:18.718Z,1.01
2023-02-12T06:00:40.754Z,1.14
2023-02-12T06:06:02.600Z,1.11
2023-02-12T06:11:24.919Z,1.16
2023-02-12T06:16:48.853Z,1.39
2023-02-12T06:22:10.722Z,1.52
2023-02-12T06:27:32.550Z,1.75
2023-02-12T06:32:54.451Z,2.04
2023-02-12T06:38:16.489Z,1.75
2023-02-12T06:43:38.417Z,2.93
2023-02-12T06:49:01.014Z,10.23
2023-02-12T06:54:22.872Z,15.35
2023-02-12T06:59:44.714Z,16.51
2023-02-12T07:05:06.658Z,14.86
2023-02-12T07:10:28.494Z,12.87
2023-02-12T07:15:50.464Z,9.27
2023-02-12T07:21:14.377Z,8.76
2023-02-12T07:26:36.234Z,10.17
2023-02-12T07:31:58.165Z,11.30
2023-02-12T07:37:20.095Z,16.19
2023-02-12T07:42:41.960Z,19.48
2023-02-12T07:48:03.984Z,19.52
2023-02-12T07:53:25.872Z,20.34
2023-02-12T07:58:50.096Z,20.79
2023-02-12T08:04:14.643Z,22.48
2023-02-12T08:09:36.525Z,20.92
2023-02-12T08:14:58.362Z,23.85
2023-02-12T08:20:20.199Z,23.41
2023-02-12T08:25:42.056Z,22.17
2023-02-12T08:31:06.916Z,22.43
2023-02-12T08:36:38.229Z,22.71
2023-02-12T08:42:00.565Z,19.32
2023-02-12T08:47:22.486Z,20.89
2023-02-12T08:52:44.315Z,19.60
2023-02-12T08:58:06.214Z,21.31
2023-02-12T09:03:28.376Z,19.84
2023-02-12T09:08:51.560Z,22.81
2023-02-12T09:14:15.524Z,21.14
2023-02-12T09:19:37.381Z,21.89
2023-02-12T09:24:59.239Z,22.17
2023-02-12T09:30:21.315Z,21.73
2023-02-12T09:35:43.357Z,21.64
2023-02-12T09:41:20.360Z,20.09
2023-02-12T09:47:12.515Z,20.14
2023-02-12T09:52:35.555Z,20.43
2023-02-12T09:57:57.765Z,17.11
2023-02-12T10:03:19.624Z,13.61
2023-02-12T10:08:53.720Z,14.81
2023-02-12T10:14:52.969Z,13.08
2023-02-12T10:20:31.652Z,10.99
2023-02-12T10:25:59.878Z,13.40
2023-02-12T10:31:34.229Z,10.41
2023-02-12T10:37:10.373Z,11.36
2023-02-12T10:42:36.762Z,8.92
2023-02-12T10:48:10.200Z,7.53
2023-02-12T10:53:34.616Z,7.52
2023-02-12T10:58:59.656Z,6.89
2023-02-12T11:04:28.319Z,6.61
2023-02-12T11:09:52.547Z,6.63
2023-02-12T11:15:17.694Z,6.81
2023-02-12T11:20:51.048Z,7.00
2023-02-12T11:26:18.640Z,7.10
2023-02-12T11:31:40.863Z,6.80
2023-02-12T11:37:03.452Z,6.99
2023-02-12T11:42:26.617Z,5.66
2023-02-12T11:47:51.137Z,5.73
2023-02-12T11:53:22.406Z,5.65
2023-02-12T11:58:46.572Z,5.98
2023-02-12T12:04:16.399Z,6.12
2023-02-12T12:09:49.693Z,6.27
2023-02-12T12:15:25.126Z,6.42
2023-02-12T12:20:56.531Z,6.37
2023-02-12T12:26:25.724Z,6.25
2023-02-12T12:31:57.825Z,6.16
2023-02-12T12:37:31.101Z,5.83
2023-02-12T12:43:22.104Z,6.08
2023-02-12T12:48:55.237Z,6.12
2023-02-12T12:54:48.121Z,6.16
2023-02-12T13:00:24.280Z,6.00
2023-02-12T13:06:06.449Z,5.59
2023-02-12T13:12:05.640Z,6.23
2023-02-12T13:17:42.742Z,6.02
2023-02-12T13:23:13.508Z,6.12
2023-02-12T13:28:42.292Z,5.85
2023-02-12T13:34:07.860Z,5.66
2023-02-12T13:39:34.812Z,5.49
2023-02-12T13:45:24.249Z,5.37
2023-02-12T13:51:24.240Z,5.22
2023-02-12T13:56:53.803Z,5.17
2023-02-12T14:02:18.683Z,5.21
2023-02-12T14:08:05.212Z,5.01
2023-02-12T14:13:27.153Z,5.13
2023-02-12T14:18:48.996Z,5.09
2023-02-12T14:24:35.974Z,4.61
2023-02-12T14:30:03.808Z,4.73
2023-02-12T14:35:49.137Z,4.44
2023-02-12T14:41:37.279Z,4.37
2023-02-12T14:47:01.555Z,4.18
2023-02-12T14:52:27.340Z,3.94
2023-02-12T14:57:50.051Z,3.64
2023-02-12T15:03:14.583Z,3.65
2023-02-12T15:09:03.095Z,3.62
2023-02-12T15:14:30.904Z,3.34
2023-02-12T15:20:07.687Z,3.25
2023-02-12T15:25:33.422Z,3.16
2023-02-12T15:30:56.959Z,2.95
2023-02-12T15:36:22.548Z,2.92
2023-02-12T15:41:44.479Z,2.82
2023-02-12T15:47:14.888Z,2.80
2023-02-12T15:52:39.640Z,2.74
2023-02-12T15:58:02.122Z,2.55
2023-02-12T16:03:38.279Z,2.42
2023-02-12T16:09:29.826Z,2.40
2023-02-12T16:14:54.498Z,2.34
2023-02-12T16:20:16.364Z,2.41
2023-02-12T16:25:38.340Z,2.26
2023-02-12T16:31:10.128Z,2.41
2023-02-12T16:36:32.464Z,2.37
2023-02-12T16:41:57.188Z,2.39
2023-02-12T16:47:24.686Z,2.23
2023-02-12T16:52:46.577Z,2.29
2023-02-12T16:58:09.026Z,2.32
2023-02-12T17:03:31.529Z,2.28
2023-02-12T17:08:53.634Z,2.22
2023-02-12T17:14:18.325Z,2.16
2023-02-12T17:19:40.464Z,2.10
2023-02-12T17:25:02.357Z,2.07
2023-02-12T17:30:24.473Z,2.07
2023-02-12T17:35:47.211Z,2.03
2023-02-12T17:41:11.015Z,2.02
2023-02-12T17:46:33.247Z,2.12
2023-02-12T17:51:55.151Z,2.13
2023-02-12T17:57:17.370Z,2.16
2023-02-12T18:02:39.580Z,2.03
2023-02-12T18:08:01.917Z,2.29
2023-02-12T18:13:24.666Z,2.35
2023-02-12T18:18:46.621Z,2.54
2023-02-12T18:24:08.885Z,2.58
2023-02-12T18:29:31.055Z,2.63
2023-02-12T18:34:53.037Z,2.78
2023-02-12T18:40:15.724Z,2.75
2023-02-12T18:45:39.878Z,2.87
2023-02-12T18:51:03.337Z,2.95
2023-02-12T18:56:25.204Z,3.06
2023-02-12T19:01:47.653Z,3.13
2023-02-12T19:07:09.653Z,3.08
2023-02-12T19:12:33.450Z,3.33
2023-02-12T19:18:01.820Z,3.38
2023-02-12T19:23:24.095Z,3.39
2023-02-12T19:28:46.576Z,3.45
2023-02-12T19:34:13.474Z,3.45
2023-02-12T19:39:35.448Z,3.31
2023-02-12T19:44:57.299Z,3.46
2023-02-12T19:50:19.294Z,3.32
2023-02-12T19:55:41.652Z,3.50
2023-02-12T20:01:15.407Z,3.57
2023-02-12T20:06:38.627Z,3.64
2023-02-12T20:12:00.740Z,3.76
2023-02-12T20:17:23.102Z,3.85
2023-02-12T20:22:45.164Z,3.91
2023-02-12T20:28:07.147Z,3.90
2023-02-12T20:33:29.077Z,4.02
2023-02-12T20:38:54.016Z,4.16
2023-02-12T20:44:18.956Z,4.11
2023-02-12T20:49:40.942Z,4.08
2023-02-12T20:55:03.087Z,4.19
2023-02-12T21:00:25.061Z,4.05
2023-02-12T21:05:47.022Z,4.11
2023-02-12T21:11:14.868Z,4.17
2023-02-12T21:16:39.271Z,4.21
2023-02-12T21:22:01.157Z,4.38
2023-02-12T21:27:23.201Z,4.27
2023-02-12T21:32:45.057Z,4.28
2023-02-12T21:38:06.959Z,4.35
2023-02-12T21:43:29.113Z,4.36
2023-02-12T21:48:51.302Z,4.39
2023-02-12T21:54:15.375Z,4.33
2023-02-12T21:59:37.270Z,4.22
2023-02-12T22:04:59.111Z,4.24
2023-02-12T22:10:21.000Z,4.15
2023-02-12T22:15:42.891Z,4.38
2023-02-12T22:21:06.578Z,4.29
2023-02-12T22:26:30.330Z,4.27
2023-02-12T22:31:52.372Z,4.23
2023-02-12T22:37:14.292Z,4.36
2023-02-12T22:42:36.569Z,4.46
2023-02-12T22:47:58.496Z,4.47
2023-02-12T22:53:21.039Z,4.40
2023-02-12T22:58:42.876Z,4.39
2023-02-12T23:04:04.895Z,4.46
2023-02-12T23:09:26.935Z,4.50
2023-02-12T23:14:48.793Z,4.30
2023-02-12T23:20:13.924Z,4.45
2023-02-12T23:25:35.839Z,4.59
2023-02-12T23:30:58.596Z,4.63
2023-02-12T23:36:20.873Z,4.58
2023-02-12T23:41:42.781Z,4.60
2023-02-12T23:47:05.257Z,4.49
2023-02-12T23:52:27.198Z,4.67
2023-02-12T23:57:49.298Z,4.73
